Time;durP1;ratioP1;P1;durP2;ratioP2;P2;SDS_P1;SDS_P2;PMS_P1;PMS_P2;Temp;Humidity;BMP_temperature;BMP_pressure;BME280_temperature;BME280_humidity;BME280_pressure;Samples;Min_cycle;Max_cycle;Signal;HPM_P1;HPM_P2
2021/12/05 00:24:15;;;;;;;1.50;1.00;;;;;;;;;;5043452;28;20045;-48
2021/12/05 00:26:44;;;;;;;2.15;1.30;;;;;;;;;;5060357;28;20127;-47
2021/12/05 00:29:18;;;;;;;1.98;1.20;;;;;;;;;;5066208;28;20076;-47
2021/12/05 00:53:34;;;;;;;4.03;1.75;;;;;;;;;;5065627;28;20408;-48
2021/12/05 01:12:39;;;;;;;7.35;3.08;;;;;;;;;;5056220;28;20029;-48
2021/12/05 01:15:08;;;;;;;5.63;2.53;;;;;;;;;;5064823;28;20029;-47
2021/12/05 01:17:43;;;;;;;5.45;2.08;;;;;;;;;;5064505;28;20488;-47
2021/12/05 01:20:12;;;;;;;7.07;2.70;;;;;;;;;;5064945;28;20407;-49
2021/12/05 01:22:44;;;;;;;6.45;2.53;;;;;;;;;;5065187;28;20024;-49
2021/12/05 01:25:37;;;;;;;4.30;2.20;;;;;;;;;;5064619;28;20432;-47
2021/12/05 01:33:21;;;;;;;3.55;1.80;;;;;;;;;;5063330;28;20123;-46
2021/12/05 02:02:56;;;;;;;5.60;2.13;;;;;;;;;;5063954;28;20506;-48
2021/12/05 02:09:00;;;;;;;6.90;2.30;;;;;;;;;;5063929;28;20039;-47
2021/12/05 02:29:35;;;;;;;2.72;1.27;;;;;;;;;;5064388;28;20035;-47
2021/12/05 02:42:58;;;;;;;1.40;0.85;;;;;;;;;;5064243;28;19912;-47
2021/12/05 02:45:26;;;;;;;2.13;1.30;;;;;;;;;;5063113;28;20035;-47
2021/12/05 02:47:54;;;;;;;3.55;1.40;;;;;;;;;;5063975;28;20487;-46
2021/12/05 02:50:22;;;;;;;1.95;1.10;;;;;;;;;;5064234;28;20029;-48
2021/12/05 02:52:48;;;;;;;2.40;1.50;;;;;;;;;;5063183;28;20020;-48
2021/12/05 02:55:31;;;;;;;1.65;1.00;;;;;;;;;;5063794;28;20071;-48
2021/12/05 02:58:02;;;;;;;4.47;1.40;;;;;;;;;;5062865;28;20025;-47
2021/12/05 03:00:38;;;;;;;2.58;1.30;;;;;;;;;;5063852;28;20534;-47
2021/12/05 03:03:16;;;;;;;4.68;1.13;;;;;;;;;;5063869;28;20449;-48
2021/12/05 03:05:45;;;;;;;4.07;1.10;;;;;;;;;;5043235;28;20044;-46
2021/12/05 03:08:13;;;;;;;1.92;1.20;;;;;;;;;;5044413;28;20381;-47
2021/12/05 03:10:39;;;;;;;1.05;0.90;;;;;;;;;;5063824;28;20029;-48
2021/12/05 03:13:06;;;;;;;3.30;0.95;;;;;;;;;;5065124;28;20020;-47
2021/12/05 03:15:32;;;;;;;2.22;0.98;;;;;;;;;;5066628;28;20051;-49
2021/12/05 03:17:59;;;;;;;1.13;0.70;;;;;;;;;;5066698;28;20029;-47
2021/12/05 03:20:26;;;;;;;3.10;0.80;;;;;;;;;;5067550;28;20032;-46
2021/12/05 03:22:52;;;;;;;1.83;0.95;;;;;;;;;;5068581;28;20021;-47
2021/12/05 03:25:19;;;;;;;4.90;1.50;;;;;;;;;;5067024;28;20029;-48
2021/12/05 03:27:45;;;;;;;1.65;0.88;;;;;;;;;;5066369;28;20036;-48
2021/12/05 03:30:14;;;;;;;1.77;0.93;;;;;;;;;;5067239;28;20112;-49
2021/12/05 03:32:40;;;;;;;4.55;0.90;;;;;;;;;;5067681;28;20178;-48
2021/12/05 03:35:07;;;;;;;1.33;0.73;;;;;;;;;;5067058;28;20036;-50
2021/12/05 03:37:33;;;;;;;2.33;0.85;;;;;;;;;;5066531;28;20028;-49
2021/12/05 03:40:00;;;;;;;1.05;0.70;;;;;;;;;;5066458;28;20162;-50
2021/12/05 03:42:26;;;;;;;1.80;0.73;;;;;;;;;;5068897;28;20020;-47
2021/12/05 03:44:52;;;;;;;1.08;0.70;;;;;;;;;;5069377;28;20462;-47
2021/12/05 03:47:18;;;;;;;1.27;0.77;;;;;;;;;;5068621;28;20029;-49
2021/12/05 03:49:44;;;;;;;1.30;0.77;;;;;;;;;;5067695;28;20036;-47
2021/12/05 03:52:12;;;;;;;1.33;0.70;;;;;;;;;;5068724;28;20016;-48
2021/12/05 03:54:39;;;;;;;1.00;0.57;;;;;;;;;;5068632;28;20044;-47
2021/12/05 03:57:06;;;;;;;1.95;0.65;;;;;;;;;;5068746;28;20021;-48
2021/12/05 03:59:32;;;;;;;1.88;0.68;;;;;;;;;;5067165;28;20554;-49
2021/12/05 04:02:01;;;;;;;1.65;0.88;;;;;;;;;;5068694;28;20095;-52
2021/12/05 04:04:27;;;;;;;1.58;0.73;;;;;;;;;;5068462;28;20033;-50
2021/12/05 04:06:53;;;;;;;1.08;0.80;;;;;;;;;;5068974;28;20644;-51
2021/12/05 04:09:19;;;;;;;1.55;1.00;;;;;;;;;;5067462;28;20032;-50
2021/12/05 04:11:56;;;;;;;1.10;0.88;;;;;;;;;;5068682;28;20494;-50
2021/12/05 04:14:22;;;;;;;1.17;0.73;;;;;;;;;;5069009;28;20498;-51
2021/12/05 04:16:48;;;;;;;0.85;0.75;;;;;;;;;;5066563;28;20071;-51
2021/12/05 04:19:14;;;;;;;1.27;0.80;;;;;;;;;;5082248;28;20036;-51
2021/12/05 04:21:41;;;;;;;1.23;0.75;;;;;;;;;;5066478;28;20025;-46
2021/12/05 04:24:09;;;;;;;1.23;0.80;;;;;;;;;;5073754;28;20020;-50
2021/12/05 04:26:35;;;;;;;1.67;0.77;;;;;;;;;;5088014;28;20495;-49
2021/12/05 04:29:02;;;;;;;2.28;1.10;;;;;;;;;;5073780;28;20034;-51
2021/12/05 04:31:28;;;;;;;2.08;1.10;;;;;;;;;;5067773;28;20033;-48
2021/12/05 04:33:54;;;;;;;1.15;0.80;;;;;;;;;;5068430;28;20042;-47
2021/12/05 04:36:20;;;;;;;2.90;1.10;;;;;;;;;;5066843;28;20128;-47
2021/12/05 04:38:47;;;;;;;1.50;0.88;;;;;;;;;;5054866;28;20686;-49
2021/12/05 04:41:14;;;;;;;1.92;0.98;;;;;;;;;;5064686;28;20486;-50
2021/12/05 04:43:41;;;;;;;2.97;1.42;;;;;;;;;;5067736;28;20028;-50
2021/12/05 04:46:09;;;;;;;2.22;0.95;;;;;;;;;;5067724;28;20040;-50
2021/12/05 04:48:35;;;;;;;2.53;0.90;;;;;;;;;;5067449;28;20051;-47
2021/12/05 04:51:01;;;;;;;2.20;1.00;;;;;;;;;;5064607;28;20028;-48
2021/12/05 04:53:28;;;;;;;3.60;1.45;;;;;;;;;;5067238;28;20079;-51
2021/12/05 04:55:56;;;;;;;3.47;1.15;;;;;;;;;;5049556;28;20084;-50
2021/12/05 04:58:22;;;;;;;2.53;1.38;;;;;;;;;;5050239;28;20036;-48
2021/12/05 05:00:48;;;;;;;1.45;1.00;;;;;;;;;;5063770;28;20024;-48
2021/12/05 05:03:15;;;;;;;1.65;0.77;;;;;;;;;;5065387;28;20043;-47
2021/12/05 05:05:47;;;;;;;4.13;1.08;;;;;;;;;;5064968;28;20171;-46
2021/12/05 05:08:13;;;;;;;2.45;0.93;;;;;;;;;;5065611;28;20020;-46
2021/12/05 05:10:39;;;;;;;1.30;0.80;;;;;;;;;;5065368;28;20558;-46
2021/12/05 05:13:05;;;;;;;5.78;1.50;;;;;;;;;;5065643;28;20048;-47
2021/12/05 05:15:32;;;;;;;4.95;1.42;;;;;;;;;;5065407;28;20383;-47
2021/12/05 05:18:01;;;;;;;3.13;1.05;;;;;;;;;;5065581;28;20032;-46
2021/12/05 05:20:50;;;;;;;2.83;1.00;;;;;;;;;;5065277;28;20021;-47
2021/12/05 05:29:03;;;;;;;2.08;0.95;;;;;;;;;;5065705;28;20428;-47
2021/12/05 05:47:54;;;;;;;0.75;0.50;;;;;;;;;;5064675;28;20499;-48
2021/12/05 05:50:22;;;;;;;0.40;0.40;;;;;;;;;;5064302;28;20031;-47
2021/12/05 05:52:49;;;;;;;1.23;0.52;;;;;;;;;;5064881;28;20419;-46
2021/12/05 05:55:17;;;;;;;1.20;0.65;;;;;;;;;;5064950;28;20519;-46
2021/12/05 05:58:07;;;;;;;1.48;0.50;;;;;;;;;;5064936;28;20025;-47
2021/12/05 06:00:40;;;;;;;1.05;0.50;;;;;;;;;;5064367;28;20030;-46
2021/12/05 06:03:21;;;;;;;;;;;;;;;;;;5065537;28;20016;-47
2021/12/05 06:05:47;;;;;;;1.38;0.63;;;;;;;;;;5065943;28;19912;-46
2021/12/05 06:08:14;;;;;;;0.70;0.68;;;;;;;;;;5066655;28;20028;-47
2021/12/05 06:10:40;;;;;;;1.48;0.55;;;;;;;;;;5065976;28;20024;-47
2021/12/05 06:13:07;;;;;;;0.68;0.50;;;;;;;;;;5066407;28;20028;-47
2021/12/05 06:15:33;;;;;;;0.40;0.40;;;;;;;;;;5065115;28;20047;-48
2021/12/05 06:17:59;;;;;;;1.05;0.57;;;;;;;;;;5065514;28;20111;-47
2021/12/05 06:20:27;;;;;;;0.88;0.60;;;;;;;;;;5065298;28;20017;-47
2021/12/05 06:22:54;;;;;;;1.33;0.70;;;;;;;;;;5066773;28;20035;-48
2021/12/05 06:25:23;;;;;;;1.25;0.90;;;;;;;;;;5069090;28;20475;-47
2021/12/05 06:27:51;;;;;;;1.42;0.85;;;;;;;;;;5086413;28;20028;-48
2021/12/05 06:30:32;;;;;;;2.10;1.02;;;;;;;;;;5074908;28;20405;-47
2021/12/05 06:48:37;;;;;;;1.65;0.60;;;;;;;;;;5070318;28;20113;-48
2021/12/05 06:51:04;;;;;;;0.63;0.50;;;;;;;;;;5075279;28;20517;-50
2021/12/05 06:53:30;;;;;;;1.17;0.57;;;;;;;;;;5050328;28;20496;-50
2021/12/05 06:55:56;;;;;;;0.65;0.40;;;;;;;;;;5050084;28;20025;-51
2021/12/05 06:58:22;;;;;;;2.00;0.70;;;;;;;;;;5061975;28;20047;-50
2021/12/05 07:00:48;;;;;;;1.73;1.10;;;;;;;;;;5067587;28;20492;-51
2021/12/05 07:03:15;;;;;;;1.50;0.80;;;;;;;;;;5069436;28;20083;-49
2021/12/05 07:05:49;;;;;;;1.13;0.80;;;;;;;;;;5069995;28;20020;-50
2021/12/05 07:08:16;;;;;;;2.22;1.00;;;;;;;;;;5070476;28;20376;-50
2021/12/05 07:15:47;;;;;;;3.75;1.80;;;;;;;;;;5075232;28;20475;-47
2021/12/05 07:26:11;;;;;;;3.05;1.88;;;;;;;;;;5077307;28;20029;-47
2021/12/05 07:42:43;;;;;;;1.60;1.00;;;;;;;;;;5066720;28;20070;-48
2021/12/05 07:45:15;;;;;;;2.00;1.02;;;;;;;;;;5065144;28;20032;-47
2021/12/05 07:47:45;;;;;;;2.53;1.35;;;;;;;;;;5048214;28;20029;-49
2021/12/05 07:50:13;;;;;;;2.75;1.08;;;;;;;;;;5082821;28;20024;-47
2021/12/05 07:52:49;;;;;;;2.38;1.38;;;;;;;;;;5066404;28;20024;-46
2021/12/05 07:55:31;;;;;;;2.53;1.50;;;;;;;;;;5066712;28;20031;-46
2021/12/05 07:58:23;;;;;;;2.30;1.45;;;;;;;;;;5068724;28;20021;-48
2021/12/05 08:01:01;;;;;;;2.00;1.50;;;;;;;;;;5066468;28;20027;-48
2021/12/05 08:14:55;;;;;;;5.72;3.22;;;;;;;;;;5067444;28;20121;-46
2021/12/05 08:17:21;;;;;;;9.10;5.70;;;;;;;;;;5067214;28;20016;-46
2021/12/05 08:19:47;;;;;;;13.55;8.50;;;;;;;;;;5066593;28;20025;-51
2021/12/05 08:22:14;;;;;;;14.63;8.57;;;;;;;;;;5067387;28;20032;-46
2021/12/05 08:24:42;;;;;;;10.82;7.18;;;;;;;;;;5070478;28;20024;-47
2021/12/05 08:27:13;;;;;;;12.70;7.10;;;;;;;;;;5068224;28;20029;-46
2021/12/05 08:34:52;;;;;;;9.52;4.95;;;;;;;;;;5047114;28;20041;-46
2021/12/05 08:37:44;;;;;;;6.28;3.72;;;;;;;;;;5064296;28;20093;-49
2021/12/05 08:40:39;;;;;;;5.20;3.17;;;;;;;;;;5063854;28;20043;-47
2021/12/05 08:43:34;;;;;;;5.88;3.30;;;;;;;;;;5066019;28;20260;-51
2021/12/05 09:22:14;;;;;;;1.83;1.27;;;;;;;;;;5065635;28;20036;-50
2021/12/05 09:24:45;;;;;;;3.20;1.60;;;;;;;;;;5064432;28;20093;-50
2021/12/05 10:08:42;;;;;;;2.97;1.30;;;;;;;;;;5065928;28;20529;-48
2021/12/05 10:11:23;;;;;;;2.65;1.77;;;;;;;;;;5064799;28;20037;-47
2021/12/05 10:14:12;;;;;;;1.80;1.25;;;;;;;;;;5065199;28;20509;-47
2021/12/05 10:17:37;;;;;;;2.13;1.73;;;;;;;;;;5065404;28;20039;-47
2021/12/05 10:38:38;;;;;;;2.92;1.73;;;;;;;;;;5064909;28;20082;-48
2021/12/05 10:43:53;;;;;;;4.80;2.22;;;;;;;;;;5064672;28;20375;-48
2021/12/05 10:46:20;;;;;;;5.35;2.63;;;;;;;;;;5063048;28;20029;-48
2021/12/05 10:49:00;;;;;;;4.63;2.40;;;;;;;;;;5064658;28;20032;-47
2021/12/05 10:51:27;;;;;;;5.07;2.72;;;;;;;;;;5064498;28;20532;-47
2021/12/05 10:53:55;;;;;;;5.63;2.70;;;;;;;;;;5064981;28;20025;-48
2021/12/05 10:56:29;;;;;;;4.30;2.42;;;;;;;;;;5064303;28;20405;-47
2021/12/05 10:59:12;;;;;;;5.25;2.53;;;;;;;;;;5065358;28;20031;-48
2021/12/05 11:01:41;;;;;;;5.07;2.88;;;;;;;;;;5064857;28;20103;-47
2021/12/05 11:04:10;;;;;;;5.00;2.83;;;;;;;;;;5065368;28;20028;-47
2021/12/05 11:06:51;;;;;;;6.47;2.80;;;;;;;;;;5064029;28;20025;-48
2021/12/05 11:09:20;;;;;;;4.90;2.75;;;;;;;;;;5054630;28;20090;-48
2021/12/05 11:11:48;;;;;;;4.70;2.60;;;;;;;;;;5064071;28;20085;-49
2021/12/05 11:14:17;;;;;;;5.53;2.90;;;;;;;;;;5064459;28;20533;-47
2021/12/05 11:16:58;;;;;;;3.78;2.10;;;;;;;;;;5064393;28;20024;-47
2021/12/05 11:19:30;;;;;;;3.28;1.85;;;;;;;;;;5064357;28;20031;-47
2021/12/05 11:21:58;;;;;;;3.45;1.98;;;;;;;;;;5063685;28;20512;-47
2021/12/05 11:24:29;;;;;;;5.05;2.10;;;;;;;;;;5062026;28;20036;-47
2021/12/05 11:27:07;;;;;;;5.00;2.80;;;;;;;;;;5064102;28;20028;-49
2021/12/05 11:29:59;;;;;;;3.50;2.22;;;;;;;;;;5061995;28;20120;-47
2021/12/05 11:32:46;;;;;;;4.32;2.78;;;;;;;;;;5063202;28;20036;-47
2021/12/05 11:35:28;;;;;;;4.10;2.72;;;;;;;;;;5049147;28;20481;-48
2021/12/05 11:37:59;;;;;;;5.22;3.28;;;;;;;;;;5067142;28;20037;-47
2021/12/05 11:40:29;;;;;;;5.22;3.10;;;;;;;;;;5067171;28;20450;-47
2021/12/05 11:43:01;;;;;;;5.50;2.58;;;;;;;;;;5067718;28;20399;-47
2021/12/05 11:45:28;;;;;;;3.67;2.28;;;;;;;;;;5065059;28;20048;-47
2021/12/05 11:47:54;;;;;;;5.03;2.72;;;;;;;;;;5059934;28;20041;-47
2021/12/05 11:50:32;;;;;;;7.13;2.47;;;;;;;;;;5064705;28;20503;-47
2021/12/05 11:52:58;;;;;;;4.05;2.08;;;;;;;;;;5046630;28;20028;-47
2021/12/05 11:55:25;;;;;;;3.50;1.50;;;;;;;;;;5046625;28;20045;-48
2021/12/05 11:57:52;;;;;;;4.47;1.60;;;;;;;;;;5066918;28;20389;-49
2021/12/05 12:00:21;;;;;;;4.50;1.75;;;;;;;;;;5065385;28;20025;-52
2021/12/05 12:02:48;;;;;;;6.18;2.33;;;;;;;;;;5048470;28;20029;-50
2021/12/05 12:05:20;;;;;;;7.95;2.65;;;;;;;;;;5065535;28;20410;-49
2021/12/05 12:07:53;;;;;;;5.53;2.30;;;;;;;;;;5066828;28;20194;-50
2021/12/05 12:10:33;;;;;;;5.90;2.40;;;;;;;;;;5065443;28;20024;-52
2021/12/05 12:13:13;;;;;;;5.38;2.53;;;;;;;;;;5052069;28;20029;-52
2021/12/05 12:15:42;;;;;;;5.20;2.38;;;;;;;;;;5056246;28;20033;-52
2021/12/05 12:18:26;;;;;;;5.47;2.63;;;;;;;;;;5067032;28;20025;-49
2021/12/05 12:20:53;;;;;;;7.90;3.50;;;;;;;;;;5048016;28;20089;-49
2021/12/05 12:23:20;;;;;;;6.40;3.15;;;;;;;;;;5064679;28;20028;-51
2021/12/05 12:25:48;;;;;;;5.00;2.40;;;;;;;;;;5047886;28;20422;-49
2021/12/05 12:28:15;;;;;;;4.57;2.40;;;;;;;;;;5066533;28;20074;-48
2021/12/05 12:30:43;;;;;;;3.75;1.67;;;;;;;;;;5064624;28;20029;-52
2021/12/05 12:33:21;;;;;;;3.88;1.48;;;;;;;;;;5049413;28;20154;-52
2021/12/05 12:35:48;;;;;;;1.80;1.13;;;;;;;;;;5064683;28;20518;-49
2021/12/05 12:38:17;;;;;;;1.77;1.00;;;;;;;;;;5066188;28;20032;-51
2021/12/05 12:40:44;;;;;;;1.83;1.20;;;;;;;;;;5065645;28;20020;-51
2021/12/05 12:43:31;;;;;;;0.90;0.70;;;;;;;;;;5066576;28;20086;-52
2021/12/05 12:46:13;;;;;;;0.90;0.73;;;;;;;;;;5034255;28;20041;-48
2021/12/05 12:48:41;;;;;;;1.55;0.80;;;;;;;;;;5063288;28;20036;-48
2021/12/05 12:51:07;;;;;;;0.98;0.88;;;;;;;;;;5063903;28;20151;-48
2021/12/05 12:53:38;;;;;;;0.82;0.70;;;;;;;;;;5065545;28;20123;-49
2021/12/05 12:56:19;;;;;;;0.63;0.60;;;;;;;;;;5065521;28;20020;-50
2021/12/05 12:58:46;;;;;;;1.10;0.80;;;;;;;;;;5065995;28;20033;-48
2021/12/05 13:12:50;;;;;;;1.80;1.35;;;;;;;;;;5064998;28;20119;-50
2021/12/05 13:15:27;;;;;;;1.70;0.90;;;;;;;;;;5047276;28;20085;-48
2021/12/05 13:17:55;;;;;;;1.67;1.00;;;;;;;;;;5065022;28;20024;-49
2021/12/05 13:20:44;;;;;;;1.58;1.17;;;;;;;;;;5065051;28;20404;-49
2021/12/05 13:23:12;;;;;;;1.15;0.80;;;;;;;;;;5020959;28;20029;-48
2021/12/05 13:25:57;;;;;;;1.38;0.80;;;;;;;;;;5051958;28;20131;-49
2021/12/05 13:28:29;;;;;;;1.42;0.85;;;;;;;;;;5064524;28;20028;-49
2021/12/05 13:30:56;;;;;;;1.52;1.08;;;;;;;;;;5047529;28;20060;-48
2021/12/05 13:33:24;;;;;;;2.75;1.73;;;;;;;;;;5065693;28;20093;-49
2021/12/05 13:35:57;;;;;;;2.45;1.77;;;;;;;;;;5065826;28;20044;-49
2021/12/05 13:38:39;;;;;;;2.17;1.17;;;;;;;;;;5065585;28;20044;-49
2021/12/05 13:41:19;;;;;;;2.80;1.42;;;;;;;;;;5065604;28;20441;-48
2021/12/05 13:43:58;;;;;;;4.30;1.67;;;;;;;;;;5063704;28;21396;-49
2021/12/05 13:46:32;;;;;;;3.13;1.80;;;;;;;;;;5065597;28;20058;-49
2021/12/05 13:48:59;;;;;;;4.78;1.75;;;;;;;;;;5044327;28;20032;-48
2021/12/05 13:51:26;;;;;;;3.60;1.60;;;;;;;;;;5064263;28;20024;-48
2021/12/05 13:53:55;;;;;;;5.03;2.50;;;;;;;;;;5065647;28;20029;-48
2021/12/05 13:56:25;;;;;;;4.40;2.65;;;;;;;;;;5065291;28;20368;-49
2021/12/05 13:58:53;;;;;;;7.07;2.80;;;;;;;;;;5064575;28;20546;-51
2021/12/05 14:01:31;;;;;;;5.95;2.75;;;;;;;;;;5047168;28;20119;-51
2021/12/05 14:04:00;;;;;;;5.45;2.63;;;;;;;;;;5065522;28;20025;-49
2021/12/05 14:06:29;;;;;;;5.00;2.35;;;;;;;;;;5064494;28;20036;-49
2021/12/05 14:08:59;;;;;;;3.22;1.58;;;;;;;;;;5046917;28;20111;-48
2021/12/05 14:11:26;;;;;;;4.18;2.25;;;;;;;;;;5064834;28;20025;-48
2021/12/05 14:13:53;;;;;;;3.33;1.60;;;;;;;;;;5065104;28;20036;-49
2021/12/05 14:16:20;;;;;;;3.58;1.70;;;;;;;;;;5046741;28;20086;-51
2021/12/05 14:18:47;;;;;;;3.65;1.70;;;;;;;;;;5046585;28;20035;-49
2021/12/05 14:21:18;;;;;;;2.38;1.45;;;;;;;;;;5046511;28;20056;-48
2021/12/05 14:23:51;;;;;;;2.58;1.75;;;;;;;;;;5064605;28;20039;-49
2021/12/05 14:26:19;;;;;;;3.95;2.08;;;;;;;;;;5046669;28;20429;-48
2021/12/05 14:28:57;;;;;;;2.80;1.63;;;;;;;;;;5046942;28;20032;-49
2021/12/05 14:31:28;;;;;;;1.83;1.40;;;;;;;;;;5048332;28;20029;-47
2021/12/05 14:33:55;;;;;;;1.35;1.15;;;;;;;;;;5064808;28;20038;-49
2021/12/05 14:36:35;;;;;;;2.45;1.30;;;;;;;;;;5063965;28;20021;-48
2021/12/05 14:39:06;;;;;;;3.45;1.30;;;;;;;;;;5038356;28;20028;-49
2021/12/05 14:41:32;;;;;;;5.20;2.17;;;;;;;;;;5064175;28;20385;-49
2021/12/05 14:43:58;;;;;;;7.88;2.78;;;;;;;;;;5063344;28;20032;-48
2021/12/05 14:46:25;;;;;;;12.45;4.10;;;;;;;;;;5064379;28;20056;-52
2021/12/05 14:49:03;;;;;;;13.45;4.45;;;;;;;;;;5061954;28;20251;-50
2021/12/05 14:51:33;;;;;;;14.23;5.25;;;;;;;;;;5041748;28;20036;-49
2021/12/05 14:54:00;;;;;;;16.60;6.38;;;;;;;;;;5027365;28;20031;-51
2021/12/05 14:56:27;;;;;;;20.70;6.93;;;;;;;;;;5057302;28;20399;-51
2021/12/05 14:59:03;;;;;;;23.98;7.32;;;;;;;;;;5065548;28;20036;-50
2021/12/05 15:01:30;;;;;;;21.58;7.30;;;;;;;;;;5065297;28;20024;-49
2021/12/05 15:03:56;;;;;;;18.65;6.22;;;;;;;;;;5065562;28;20043;-48
2021/12/05 15:06:34;;;;;;;17.05;5.88;;;;;;;;;;5064779;28;20055;-47
2021/12/05 15:09:00;;;;;;;15.25;5.18;;;;;;;;;;5066723;28;20028;-47
2021/12/05 15:11:26;;;;;;;12.10;4.10;;;;;;;;;;5068970;28;20083;-47
2021/12/05 15:14:01;;;;;;;7.65;3.40;;;;;;;;;;5069109;28;20123;-48
2021/12/05 15:16:27;;;;;;;7.53;3.20;;;;;;;;;;5069094;28;20100;-47
2021/12/05 15:18:54;;;;;;;6.03;2.70;;;;;;;;;;5069142;28;20535;-48
2021/12/05 15:21:21;;;;;;;3.90;1.90;;;;;;;;;;5068892;28;20062;-48
2021/12/05 15:23:47;;;;;;;5.13;2.30;;;;;;;;;;5069171;28;20033;-47
2021/12/05 15:26:14;;;;;;;2.80;1.40;;;;;;;;;;5068700;28;20036;-47
2021/12/05 15:28:40;;;;;;;3.30;1.60;;;;;;;;;;5068151;28;20768;-46
2021/12/05 15:31:06;;;;;;;2.58;1.27;;;;;;;;;;5071071;28;20080;-54
2021/12/05 15:33:34;;;;;;;3.63;1.58;;;;;;;;;;5069247;28;20043;-48
2021/12/05 15:36:01;;;;;;;1.08;0.90;;;;;;;;;;5068536;28;20502;-48
2021/12/05 15:38:30;;;;;;;1.95;1.13;;;;;;;;;;5049497;28;20040;-50
2021/12/05 15:40:58;;;;;;;1.80;1.27;;;;;;;;;;5047278;28;20503;-47
2021/12/05 15:43:26;;;;;;;2.38;1.25;;;;;;;;;;5068247;28;20054;-48
2021/12/05 15:45:53;;;;;;;2.03;1.30;;;;;;;;;;5069482;28;20021;-52
2021/12/05 15:48:23;;;;;;;2.60;1.50;;;;;;;;;;5050319;28;20622;-52
2021/12/05 15:50:52;;;;;;;1.90;1.60;;;;;;;;;;5065577;28;20123;-52
2021/12/05 15:53:19;;;;;;;2.67;1.88;;;;;;;;;;5050603;28;20241;-51
2021/12/05 15:55:47;;;;;;;2.88;1.58;;;;;;;;;;5048935;28;20399;-53
2021/12/05 15:58:22;;;;;;;2.53;1.70;;;;;;;;;;5065956;28;20083;-52
2021/12/05 16:00:51;;;;;;;3.33;1.70;;;;;;;;;;5065888;28;20028;-49
2021/12/05 16:03:25;;;;;;;3.28;1.80;;;;;;;;;;5069311;28;20025;-48
2021/12/05 16:05:51;;;;;;;;;;;;;;;;;;5069197;28;20046;-48
2021/12/05 16:08:18;;;;;;;2.40;1.60;;;;;;;;;;5068801;28;19912;-52
2021/12/05 16:10:45;;;;;;;2.90;1.67;;;;;;;;;;5048778;28;20033;-51
2021/12/05 16:13:13;;;;;;;2.25;1.58;;;;;;;;;;5050972;28;20514;-51
2021/12/05 16:15:40;;;;;;;2.80;1.60;;;;;;;;;;5068492;28;20067;-50
2021/12/05 16:18:06;;;;;;;2.92;1.73;;;;;;;;;;5068694;28;20178;-47
2021/12/05 16:20:40;;;;;;;2.67;1.58;;;;;;;;;;5067318;28;20503;-48
2021/12/05 16:23:08;;;;;;;3.15;2.05;;;;;;;;;;5065135;28;20024;-52
2021/12/05 16:25:54;;;;;;;2.10;1.50;;;;;;;;;;5063663;28;20060;-48
2021/12/05 16:28:23;;;;;;;2.85;1.85;;;;;;;;;;5045885;28;20036;-48
2021/12/05 16:30:56;;;;;;;2.95;2.05;;;;;;;;;;5066637;28;20032;-49
2021/12/05 16:33:22;;;;;;;3.33;1.75;;;;;;;;;;5067014;28;20055;-48
2021/12/05 16:35:49;;;;;;;2.97;2.00;;;;;;;;;;5048751;28;20462;-48
2021/12/05 16:38:24;;;;;;;3.00;1.80;;;;;;;;;;5048101;28;20119;-49
2021/12/05 16:40:56;;;;;;;4.25;2.50;;;;;;;;;;5064443;28;20071;-48
2021/12/05 16:43:23;;;;;;;3.50;1.98;;;;;;;;;;5063577;28;20051;-50
2021/12/05 16:45:49;;;;;;;2.30;1.40;;;;;;;;;;5065930;28;20678;-48
2021/12/05 16:48:17;;;;;;;3.40;1.70;;;;;;;;;;5065724;28;20107;-50
2021/12/05 16:50:43;;;;;;;2.83;1.70;;;;;;;;;;5062336;28;20047;-53
2021/12/05 16:53:13;;;;;;;3.58;1.77;;;;;;;;;;5067404;28;20565;-50
2021/12/05 16:55:44;;;;;;;2.65;1.80;;;;;;;;;;5039980;28;20094;-48
2021/12/05 16:58:17;;;;;;;2.63;1.70;;;;;;;;;;5067297;28;20371;-50
2021/12/05 17:00:45;;;;;;;3.35;2.30;;;;;;;;;;5061084;28;20021;-52
2021/12/05 17:03:16;;;;;;;3.53;1.92;;;;;;;;;;5048208;28;20664;-49
2021/12/05 17:05:44;;;;;;;4.50;2.80;;;;;;;;;;5063703;28;20075;-48
2021/12/05 17:08:13;;;;;;;12.68;5.78;;;;;;;;;;5066766;28;20103;-48
2021/12/05 17:10:45;;;;;;;14.18;6.63;;;;;;;;;;5066830;28;20037;-51
2021/12/05 17:13:20;;;;;;;17.25;7.25;;;;;;;;;;5065751;28;20027;-48
2021/12/05 17:16:05;;;;;;;14.80;6.82;;;;;;;;;;5064527;28;20442;-47
2021/12/05 17:18:31;;;;;;;15.10;7.18;;;;;;;;;;5063219;28;20025;-48
2021/12/05 17:21:04;;;;;;;10.80;5.63;;;;;;;;;;5065184;28;20028;-48
2021/12/05 17:23:32;;;;;;;9.75;4.90;;;;;;;;;;5063236;28;20025;-50
2021/12/05 17:26:11;;;;;;;8.65;3.65;;;;;;;;;;5046449;28;20024;-48
2021/12/05 17:28:39;;;;;;;9.60;4.47;;;;;;;;;;5063882;28;20070;-49
2021/12/05 17:31:08;;;;;;;11.02;4.82;;;;;;;;;;5064681;28;20039;-51
2021/12/05 17:33:38;;;;;;;6.88;2.90;;;;;;;;;;5043774;28;20032;-51
2021/12/05 17:36:40;;;;;;;6.88;2.63;;;;;;;;;;5046041;28;20031;-49
2021/12/05 17:39:06;;;;;;;4.15;2.45;;;;;;;;;;4988118;28;20034;-52
2021/12/05 17:41:32;;;;;;;4.30;2.40;;;;;;;;;;5044639;28;20496;-50
2021/12/05 17:44:00;;;;;;;4.13;2.55;;;;;;;;;;5063830;28;20037;-53
2021/12/05 17:46:26;;;;;;;3.88;2.10;;;;;;;;;;5045448;28;20062;-50
2021/12/05 17:48:52;;;;;;;4.28;1.90;;;;;;;;;;5045429;28;20027;-50
2021/12/05 17:51:20;;;;;;;3.80;2.20;;;;;;;;;;5062621;28;20135;-51
2021/12/05 17:53:48;;;;;;;3.10;1.50;;;;;;;;;;5063650;28;20025;-52
2021/12/05 17:56:31;;;;;;;5.35;1.70;;;;;;;;;;5062932;28;20297;-51
2021/12/05 17:59:13;;;;;;;4.68;1.40;;;;;;;;;;5045971;28;20503;-50
2021/12/05 18:04:29;;;;;;;3.28;1.40;;;;;;;;;;5062723;28;20046;-51
2021/12/05 18:06:56;;;;;;;2.20;1.55;;;;;;;;;;5063244;28;20044;-48
2021/12/05 18:09:22;;;;;;;4.32;2.08;;;;;;;;;;5062571;28;20075;-49
2021/12/05 18:11:49;;;;;;;3.65;1.50;;;;;;;;;;5063298;28;20060;-52
2021/12/05 18:14:15;;;;;;;4.35;1.60;;;;;;;;;;5063747;28;20055;-49
2021/12/05 18:16:41;;;;;;;3.33;1.67;;;;;;;;;;5062431;28;20108;-52
2021/12/05 18:19:10;;;;;;;3.60;2.08;;;;;;;;;;5062908;28;20060;-53
2021/12/05 18:21:37;;;;;;;2.50;1.20;;;;;;;;;;5062273;28;20033;-52
2021/12/05 18:24:05;;;;;;;2.67;1.65;;;;;;;;;;5061865;28;20535;-48
2021/12/05 18:26:33;;;;;;;2.70;1.52;;;;;;;;;;5063285;28;20040;-50
2021/12/05 18:28:59;;;;;;;3.53;1.55;;;;;;;;;;5062583;28;20052;-53
2021/12/05 18:31:26;;;;;;;2.03;1.30;;;;;;;;;;5062631;28;20033;-52
2021/12/05 18:33:54;;;;;;;3.42;1.52;;;;;;;;;;5061659;28;20443;-50
2021/12/05 18:36:21;;;;;;;2.92;1.67;;;;;;;;;;5062865;28;20029;-51
2021/12/05 18:38:48;;;;;;;2.53;1.50;;;;;;;;;;5062644;28;20514;-53
2021/12/05 18:41:16;;;;;;;3.45;1.70;;;;;;;;;;5062751;28;20040;-50
2021/12/05 18:43:43;;;;;;;2.17;1.45;;;;;;;;;;5062566;28;20245;-50
2021/12/05 18:46:09;;;;;;;3.45;2.13;;;;;;;;;;5066114;28;20047;-52
2021/12/05 18:48:36;;;;;;;3.72;2.10;;;;;;;;;;5066762;28;20495;-52
2021/12/05 18:51:02;;;;;;;3.53;2.00;;;;;;;;;;5061689;28;20439;-52
2021/12/05 18:53:29;;;;;;;3.95;2.05;;;;;;;;;;5065707;28;20025;-52
2021/12/05 18:55:55;;;;;;;3.42;1.73;;;;;;;;;;5066429;28;20590;-54
2021/12/05 18:58:23;;;;;;;3.58;2.35;;;;;;;;;;5066749;28;20028;-50
2021/12/05 19:06:28;;;;;;;4.47;1.83;;;;;;;;;;5064432;28;20102;-50
2021/12/05 19:11:45;;;;;;;3.45;1.60;;;;;;;;;;5066233;28;20082;-51
2021/12/05 19:14:13;;;;;;;3.08;1.50;;;;;;;;;;5047633;28;20036;-50
2021/12/05 19:16:40;;;;;;;3.83;1.50;;;;;;;;;;5065580;28;20033;-50
2021/12/05 19:19:08;;;;;;;3.42;1.85;;;;;;;;;;5063182;28;20020;-52
2021/12/05 19:21:36;;;;;;;2.67;1.77;;;;;;;;;;5064195;28;20443;-48
2021/12/05 19:24:04;;;;;;;4.75;2.10;;;;;;;;;;5067004;28;20050;-49
2021/12/05 19:26:30;;;;;;;2.63;1.83;;;;;;;;;;5063383;28;20158;-52
2021/12/05 19:28:57;;;;;;;2.38;1.55;;;;;;;;;;5048533;28;20111;-52
2021/12/05 19:31:24;;;;;;;3.85;1.63;;;;;;;;;;5065291;28;20037;-50
2021/12/05 19:33:50;;;;;;;5.82;2.95;;;;;;;;;;5064817;28;20606;-52
2021/12/05 19:36:19;;;;;;;4.63;2.83;;;;;;;;;;5047374;28;20482;-52
2021/12/05 19:38:46;;;;;;;6.97;3.22;;;;;;;;;;5064370;28;20517;-52
2021/12/05 19:41:12;;;;;;;7.32;3.28;;;;;;;;;;5065074;28;20025;-52
2021/12/05 19:43:39;;;;;;;5.10;2.85;;;;;;;;;;5065201;28;20555;-51
2021/12/05 19:46:07;;;;;;;4.53;2.90;;;;;;;;;;5065598;28;20046;-49
2021/12/05 19:48:33;;;;;;;3.75;2.53;;;;;;;;;;5067787;28;20055;-50
2021/12/05 19:50:59;;;;;;;4.45;2.30;;;;;;;;;;5081364;28;20104;-50
2021/12/05 19:53:26;;;;;;;5.60;2.22;;;;;;;;;;5065597;28;20029;-52
2021/12/05 19:55:52;;;;;;;3.50;1.95;;;;;;;;;;5064462;28;20111;-53
2021/12/05 19:58:19;;;;;;;3.88;1.92;;;;;;;;;;5066481;28;20067;-50
2021/12/05 20:00:45;;;;;;;4.82;2.38;;;;;;;;;;5065227;28;20021;-52
2021/12/05 20:03:12;;;;;;;5.88;2.38;;;;;;;;;;5048053;28;20078;-55
2021/12/05 20:05:39;;;;;;;6.25;2.33;;;;;;;;;;5063481;28;20116;-53
2021/12/05 20:08:06;;;;;;;4.10;2.25;;;;;;;;;;5065252;28;20064;-54
2021/12/05 20:10:34;;;;;;;4.95;2.30;;;;;;;;;;5063902;28;20025;-49
2021/12/05 20:13:01;;;;;;;5.05;2.47;;;;;;;;;;5066503;28;20366;-50
2021/12/05 20:15:30;;;;;;;5.40;1.98;;;;;;;;;;5046996;28;20558;-52
2021/12/05 20:17:56;;;;;;;4.60;2.08;;;;;;;;;;5066013;28;20044;-51
2021/12/05 20:20:23;;;;;;;2.25;1.60;;;;;;;;;;5064393;28;20029;-51
2021/12/05 20:22:50;;;;;;;3.22;1.77;;;;;;;;;;5065347;28;20028;-51
2021/12/05 20:25:16;;;;;;;2.30;1.52;;;;;;;;;;5065607;28;20068;-54
2021/12/05 20:27:43;;;;;;;3.33;1.50;;;;;;;;;;5065151;28;20414;-51
2021/12/05 20:30:15;;;;;;;1.90;1.38;;;;;;;;;;5046402;28;20028;-53